Time;durP1;ratioP1;P1;durP2;ratioP2;P2;SDS_P1;SDS_P2;PMS_P1;PMS_P2;Temp;Humidity;BMP_temperature;BMP_pressure;BME280_temperature;BME280_humidity;BME280_pressure;Samples;Min_cycle;Max_cycle;Signal;HPM_P1;HPM_P2
2022/05/27 00:00:04;;;;;;;1.20;1.10;;;;;;;14.14;62.27;98731.97;104921;1271;77089;-25
2022/05/27 00:02:31;;;;;;;1.70;1.20;;;;;;;14.07;62.52;98734.04;105051;1272;73890;-25
2022/05/27 00:04:59;;;;;;;2.30;1.10;;;;;;;13.98;62.67;98728.28;105112;1271;63296;-25
2022/05/27 00:07:27;;;;;;;3.70;1.10;;;;;;;13.90;62.98;98733.49;104838;1271;61726;-25
2022/05/27 00:09:54;;;;;;;3.60;1.00;;;;;;;13.80;63.30;98731.55;104833;1271;74778;-25
2022/05/27 00:12:21;;;;;;;6.40;1.10;;;;;;;13.73;63.51;98728.52;105145;1271;76136;-25
2022/05/27 00:14:49;;;;;;;1.40;0.80;;;;;;;14.20;62.34;98725.77;105119;1271;74413;-25
2022/05/27 00:17:16;;;;;;;4.50;1.00;;;;;;;14.63;60.72;98721.91;105190;1271;61806;-25
2022/05/27 00:19:44;;;;;;;6.20;1.10;;;;;;;14.66;60.45;98728.80;105146;1271;63177;-25
2022/05/27 00:22:11;;;;;;;2.30;1.00;;;;;;;14.53;60.67;98727.71;105115;1271;75656;-25
2022/05/27 00:24:38;;;;;;;3.30;1.00;;;;;;;14.32;61.31;98732.73;105114;1271;77122;-25
2022/05/27 00:27:08;;;;;;;2.20;1.10;;;;;;;14.13;61.73;98740.45;105127;1271;74738;-25
2022/05/27 00:29:35;;;;;;;2.20;1.00;;;;;;;13.95;62.26;98739.27;105184;1271;63514;-25
2022/05/27 00:32:23;;;;;;;3.50;1.00;;;;;;;13.81;62.73;98737.52;105111;1271;63037;-25
2022/05/27 00:34:50;;;;;;;1.50;1.10;;;;;;;13.72;63.13;98736.83;105123;1271;74430;-25
2022/05/27 00:37:18;;;;;;;1.50;1.20;;;;;;;13.63;63.34;98735.98;105126;1271;76962;-25
2022/05/27 00:39:45;;;;;;;1.70;0.90;;;;;;;13.59;63.55;98733.11;104879;1271;74138;-25
2022/05/27 00:42:12;;;;;;;2.00;1.00;;;;;;;13.53;63.69;98730.87;104872;1271;63064;-25
2022/05/27 00:44:40;;;;;;;1.90;1.10;;;;;;;13.47;63.56;98723.77;104805;1271;63221;-25
2022/05/27 00:47:09;;;;;;;5.60;1.20;;;;;;;13.42;63.40;98722.19;105016;1271;75588;-25
2022/05/27 00:49:48;;;;;;;1.00;0.90;;;;;;;13.36;63.74;98719.45;104995;1270;76992;-25
2022/05/27 00:52:17;;;;;;;1.10;0.80;;;;;;;13.34;64.63;98719.26;105157;1271;75181;-25
2022/05/27 00:54:44;;;;;;;1.00;0.70;;;;;;;13.97;64.05;98715.50;105059;1271;63302;-25
2022/05/27 00:57:25;;;;;;;1.70;0.70;;;;;;;14.66;62.40;98713.13;105151;1271;62023;-25
2022/05/27 00:59:56;;;;;;;4.00;0.90;;;;;;;14.79;61.48;98712.10;104807;1271;76346;-25
2022/05/27 01:02:23;;;;;;;1.00;0.80;;;;;;;14.65;61.66;98709.52;105119;1271;77003;-25
2022/05/27 01:04:50;;;;;;;1.10;0.90;;;;;;;14.45;62.10;98708.41;105134;1271;75680;-25
2022/05/27 01:07:18;;;;;;;3.30;1.40;;;;;;;14.25;62.53;98710.61;104703;1272;61743;-25
2022/05/27 01:09:48;;;;;;;2.00;1.40;;;;;;;14.06;62.96;98706.63;104709;1271;62835;-25
2022/05/27 01:12:41;;;;;;;2.30;1.00;;;;;;;13.88;63.41;98704.41;104812;1271;74203;-25
2022/05/27 01:15:41;;;;;;;1.90;1.20;;;;;;;13.69;63.63;98712.14;105033;1271;75928;-25
2022/05/27 01:18:20;;;;;;;3.80;1.10;;;;;;;13.52;64.43;98713.86;104898;1271;75422;-25
2022/05/27 01:21:07;;;;;;;1.20;1.10;;;;;;;13.37;65.08;98708.30;104759;1271;62746;-26
2022/05/27 01:23:56;;;;;;;5.10;1.20;;;;;;;13.23;65.46;98706.05;104729;1271;61323;-25
2022/05/27 01:27:03;;;;;;;2.50;0.90;;;;;;;13.18;66.15;98705.84;104892;1271;75239;-25
2022/05/27 01:29:47;;;;;;;1.90;0.90;;;;;;;14.01;64.70;98705.71;104987;1270;75997;-25
2022/05/27 01:32:25;;;;;;;2.90;1.10;;;;;;;14.52;63.11;98706.48;104772;1271;75488;-25
2022/05/27 01:35:02;;;;;;;1.30;1.00;;;;;;;14.50;62.69;98705.27;104818;1270;61814;-25
2022/05/27 01:37:43;;;;;;;2.00;1.00;;;;;;;14.30;63.12;98709.42;104762;1271;61759;-26
2022/05/27 01:40:20;;;;;;;3.70;0.90;;;;;;;14.07;63.52;98712.04;104930;1271;74489;-25
2022/05/27 01:43:18;;;;;;;1.90;1.10;;;;;;;13.87;64.20;98709.34;104681;1271;77168;-25
2022/05/27 01:46:15;;;;;;;2.60;1.10;;;;;;;13.68;64.69;98712.30;105034;1271;74704;-25
2022/05/27 01:49:15;;;;;;;1.70;1.20;;;;;;;13.52;64.86;98708.61;104838;1271;63336;-25
2022/05/27 01:51:52;;;;;;;2.50;1.20;;;;;;;13.38;65.29;98704.12;104857;1271;63058;-25
2022/05/27 01:54:28;;;;;;;2.30;1.40;;;;;;;13.27;65.46;98703.88;105002;1271;76581;-25
2022/05/27 01:56:59;;;;;;;2.20;1.30;;;;;;;13.19;65.72;98702.10;104984;1271;75955;-25
2022/05/27 01:59:40;;;;;;;1.30;0.80;;;;;;;13.13;66.35;98705.61;104935;1271;74347;-25
2022/05/27 02:02:11;;;;;;;3.20;1.00;;;;;;;13.73;65.43;98711.64;105070;1271;63106;-25
2022/05/27 02:04:45;;;;;;;0.90;0.80;;;;;;;14.18;64.16;98705.73;104664;1271;61743;-26
2022/05/27 02:07:34;;;;;;;3.00;1.10;;;;;;;14.23;63.72;98704.02;104812;1271;76622;-25
2022/05/27 02:10:05;;;;;;;4.60;1.00;;;;;;;14.08;63.88;98702.20;104871;1271;75584;-25
2022/05/27 02:12:42;;;;;;;1.90;1.30;;;;;;;13.93;64.42;98701.79;104818;1271;74599;-25
2022/05/27 02:15:32;;;;;;;2.20;1.50;;;;;;;13.80;64.58;98696.25;104994;1272;62822;-25
2022/05/27 02:18:11;;;;;;;2.40;1.40;;;;;;;13.65;65.03;98697.80;105102;1271;62942;-25
2022/05/27 02:20:41;;;;;;;3.10;1.30;;;;;;;13.52;65.42;98701.98;104969;1271;75600;-25
2022/05/27 02:23:19;;;;;;;1.80;1.40;;;;;;;13.41;65.80;98697.19;105123;1271;75903;-25
2022/05/27 02:25:46;;;;;;;6.90;1.60;;;;;;;13.34;65.86;98699.38;105125;1271;75081;-25
2022/05/27 02:28:17;;;;;;;7.90;1.40;;;;;;;13.33;66.26;98699.51;105146;1271;62574;-25
2022/05/27 02:30:45;;;;;;;1.10;0.90;;;;;;;13.91;65.19;98702.89;104991;1273;62851;-25
2022/05/27 02:36:09;;;;;;;2.50;1.10;;;;;;;14.51;62.97;98701.34;105035;1271;75828;-25
2022/05/27 02:38:36;;;;;;;1.80;1.40;;;;;;;14.41;62.84;98701.29;104679;1271;75191;-25
2022/05/27 02:41:34;;;;;;;2.80;1.50;;;;;;;14.21;63.30;98702.97;105067;1269;63073;-25
2022/05/27 02:44:41;;;;;;;3.90;2.00;;;;;;;14.03;63.82;98705.37;105127;1271;61995;-25
2022/05/27 02:47:35;;;;;;;2.60;1.40;;;;;;;13.86;64.26;98708.72;105104;1270;75596;-25
2022/05/27 02:50:26;;;;;;;2.60;1.70;;;;;;;13.73;64.75;98707.39;105055;1271;74640;-25
2022/05/27 02:53:12;;;;;;;2.40;1.60;;;;;;;13.59;65.19;98707.96;105098;1271;74853;-25
2022/05/27 02:55:50;;;;;;;7.50;1.70;;;;;;;13.49;65.61;98712.76;105148;1271;63115;-25
2022/05/27 02:58:17;;;;;;;3.50;1.50;;;;;;;13.48;65.76;98713.04;105077;1271;61846;-25
2022/05/27 03:00:45;;;;;;;5.20;1.30;;;;;;;14.02;64.84;98714.19;105133;1271;75587;-25
2022/05/27 03:03:12;;;;;;;2.50;1.40;;;;;;;14.39;63.50;98717.71;105020;1271;77043;-26
2022/05/27 03:05:55;;;;;;;2.30;1.50;;;;;;;14.45;63.14;98714.89;104821;1271;74425;-25
2022/05/27 03:08:41;;;;;;;4.50;1.50;;;;;;;14.31;63.30;98715.78;104751;1271;61852;-22
2022/05/27 03:11:13;;;;;;;1.80;1.50;;;;;;;14.13;64.02;98714.59;104900;1271;62765;-22
2022/05/27 03:14:08;;;;;;;6.00;1.60;;;;;;;13.96;64.37;98712.50;104707;1271;75509;-22
2022/05/27 03:16:42;;;;;;;3.40;1.50;;;;;;;13.80;65.07;98713.86;104814;1271;77034;-21
2022/05/27 03:19:19;;;;;;;6.20;1.70;;;;;;;13.69;65.47;98715.95;105127;1271;75147;-23
2022/05/27 03:22:04;;;;;;;3.70;1.50;;;;;;;13.59;65.46;98718.03;105082;1271;63363;-23
2022/05/27 03:24:38;;;;;;;4.00;1.70;;;;;;;13.51;66.20;98721.08;105107;1271;61782;-23
2022/05/27 03:27:08;;;;;;;;;;;;;;;13.51;65.84;98718.55;105125;1271;74904;-23
2022/05/27 03:29:35;;;;;;;1.90;1.20;;;;;;;14.07;64.78;98716.95;105121;1271;76992;-22
2022/05/27 03:32:18;;;;;;;3.60;1.10;;;;;;;14.57;63.18;98716.23;105089;1271;75380;-25
2022/05/27 03:34:48;;;;;;;1.90;1.20;;;;;;;14.67;62.62;98720.80;105086;1272;61890;-23
2022/05/27 03:37:19;;;;;;;2.50;1.20;;;;;;;14.52;62.82;98714.65;104850;1271;61709;-23
2022/05/27 03:40:08;;;;;;;8.50;1.60;;;;;;;14.39;63.25;98714.60;104726;1271;75505;-24
2022/05/27 03:42:36;;;;;;;2.50;1.20;;;;;;;14.23;63.67;98714.80;105027;1271;76999;-25
2022/05/27 03:45:10;;;;;;;2.90;1.70;;;;;;;14.10;64.11;98708.63;104913;1271;73710;-25
2022/05/27 03:47:38;;;;;;;2.00;1.50;;;;;;;14.00;64.49;98713.14;104791;1271;63062;-25
2022/05/27 03:50:07;;;;;;;3.10;1.60;;;;;;;13.88;64.84;98710.30;104815;1271;62089;-25
2022/05/27 03:52:42;;;;;;;1.90;1.40;;;;;;;13.79;65.40;98714.89;104993;1271;76557;-25
2022/05/27 03:55:11;;;;;;;5.40;1.40;;;;;;;13.73;65.53;98714.62;104841;1271;77003;-25
2022/05/27 03:57:38;;;;;;;1.80;1.10;;;;;;;13.73;65.55;98716.65;104849;1271;75456;-25
2022/05/27 04:00:07;;;;;;;2.70;1.20;;;;;;;14.19;64.35;98712.09;104876;1271;63035;-25
2022/05/27 04:02:40;;;;;;;3.30;1.20;;;;;;;14.58;63.51;98714.95;105098;1271;62953;-25
2022/05/27 04:05:09;;;;;;;1.60;1.10;;;;;;;14.60;63.18;98716.86;105112;1271;74706;-25
2022/05/27 04:07:36;;;;;;;5.80;1.40;;;;;;;14.52;63.32;98715.93;104813;1271;75821;-25
2022/05/27 04:10:04;;;;;;;2.10;1.20;;;;;;;14.41;63.70;98718.73;104962;1271;74103;-25
2022/05/27 04:12:31;;;;;;;4.60;1.30;;;;;;;14.30;64.43;98719.94;105016;1271;62890;-25
2022/05/27 04:14:59;;;;;;;1.90;1.40;;;;;;;14.22;64.47;98716.30;104969;1271;61730;-26
2022/05/27 04:17:32;;;;;;;2.60;1.40;;;;;;;14.15;65.21;98714.75;104744;1271;76546;-25
2022/05/27 04:20:01;;;;;;;3.00;1.60;;;;;;;14.10;65.11;98714.77;104932;1271;75699;-25
2022/05/27 04:22:28;;;;;;;7.40;1.80;;;;;;;14.04;65.80;98713.05;105101;1271;75397;-23
2022/05/27 04:24:56;;;;;;;3.30;1.20;;;;;;;14.04;65.54;98708.59;105124;1271;63828;-24
2022/05/27 04:27:24;;;;;;;1.70;1.20;;;;;;;14.51;64.40;98709.66;104946;1271;61191;-24
2022/05/27 04:29:52;;;;;;;2.50;1.40;;;;;;;14.94;62.87;98712.29;104803;1271;76296;-24
2022/05/27 04:32:21;;;;;;;2.00;1.20;;;;;;;15.03;62.28;98712.39;104881;1271;75566;-24
2022/05/27 04:34:49;;;;;;;2.90;1.10;;;;;;;14.98;62.70;98716.42;104873;1271;73299;-24
2022/05/27 04:37:18;;;;;;;2.90;1.10;;;;;;;14.90;63.09;98718.67;104804;1271;63073;-24
2022/05/27 04:39:45;;;;;;;3.80;1.50;;;;;;;14.78;63.37;98715.86;104759;1271;61829;-24
2022/05/27 04:42:13;;;;;;;4.00;1.40;;;;;;;14.68;63.70;98715.49;104870;1271;76862;-26
2022/05/27 04:44:40;;;;;;;4.30;1.40;;;;;;;14.64;64.00;98721.13;104924;1271;76116;-23
2022/05/27 04:47:07;;;;;;;2.80;1.60;;;;;;;14.64;64.39;98718.48;104946;1271;74609;-24
2022/05/27 04:49:50;;;;;;;1.60;1.20;;;;;;;14.65;64.12;98716.09;104751;1271;63208;-23
2022/05/27 04:52:19;;;;;;;3.90;1.80;;;;;;;14.75;64.44;98717.11;104660;1272;63273;-26
2022/05/27 04:54:46;;;;;;;3.90;1.50;;;;;;;14.81;63.77;98716.75;104876;1271;76529;-24
2022/05/27 04:57:25;;;;;;;23.60;2.30;;;;;;;14.89;63.68;98714.70;104904;1271;77005;-24
2022/05/27 04:59:52;;;;;;;2.60;1.50;;;;;;;14.97;63.07;98715.25;104669;1271;75446;-24
2022/05/27 05:02:21;;;;;;;2.40;1.50;;;;;;;15.06;62.97;98717.19;104830;1271;63108;-24
2022/05/27 05:04:49;;;;;;;3.80;1.10;;;;;;;15.23;63.54;98716.12;104819;1271;61903;-24
2022/05/27 05:07:18;;;;;;;4.60;1.10;;;;;;;15.93;61.86;98712.35;104773;1271;76588;-24
2022/05/27 05:09:46;;;;;;;2.20;1.20;;;;;;;16.48;59.93;98710.50;104790;1271;77021;-24
2022/05/27 05:12:13;;;;;;;3.50;1.20;;;;;;;16.51;58.75;98713.11;104987;1271;74424;-26
2022/05/27 05:14:40;;;;;;;3.50;1.30;;;;;;;16.48;59.20;98715.19;105025;1271;62004;-24
2022/05/27 05:17:08;;;;;;;3.40;1.30;;;;;;;16.44;59.00;98711.30;104769;1271;63057;-24
2022/05/27 05:19:35;;;;;;;1.50;1.10;;;;;;;16.37;58.77;98708.21;104901;1271;74435;-24
2022/05/27 05:22:03;;;;;;;3.30;1.50;;;;;;;16.43;59.73;98705.76;104777;1271;76689;-24
2022/05/27 05:24:30;;;;;;;4.00;1.60;;;;;;;16.55;58.89;98699.83;104772;1271;73302;-25
2022/05/27 05:26:58;;;;;;;2.80;1.40;;;;;;;16.56;59.15;98699.73;104956;1271;63227;-24
2022/05/27 05:29:25;;;;;;;3.30;1.90;;;;;;;16.69;58.62;98699.95;104762;1271;63095;-25
2022/05/27 05:31:52;;;;;;;9.80;1.70;;;;;;;16.76;58.60;98701.05;104873;1271;76529;-25
2022/05/27 05:34:20;;;;;;;3.50;1.40;;;;;;;16.95;57.45;98697.35;104977;1271;76963;-24
2022/05/27 05:36:47;;;;;;;5.30;1.40;;;;;;;17.05;57.46;98697.52;104726;1271;74030;-24
2022/05/27 05:39:15;;;;;;;4.70;1.20;;;;;;;17.05;57.97;98698.19;104741;1271;62774;-24
2022/05/27 05:41:42;;;;;;;3.30;1.30;;;;;;;17.10;56.54;98693.95;104890;1271;63312;-24
2022/05/27 05:44:10;;;;;;;4.20;1.70;;;;;;;17.12;57.88;98695.74;104762;1271;75272;-24
2022/05/27 05:46:38;;;;;;;2.80;1.50;;;;;;;17.14;56.79;98691.71;105145;1271;75879;-24
2022/05/27 05:49:05;;;;;;;2.50;1.20;;;;;;;17.11;57.08;98685.79;105161;1271;74648;-24
2022/05/27 05:51:32;;;;;;;3.10;1.40;;;;;;;17.14;57.55;98687.38;104989;1271;61160;-23
2022/05/27 05:54:00;;;;;;;2.00;1.30;;;;;;;17.23;56.76;98683.11;104860;1271;62990;-24
2022/05/27 05:56:30;;;;;;;3.60;1.70;;;;;;;17.33;57.62;98686.20;104960;1271;76602;-24
2022/05/27 05:58:57;;;;;;;5.20;1.50;;;;;;;17.38;56.51;98675.86;104687;1271;77007;-24
2022/05/27 06:01:24;;;;;;;5.50;1.70;;;;;;;17.31;56.68;98680.00;104780;1271;75121;-27
2022/05/27 06:03:52;;;;;;;3.10;1.40;;;;;;;17.32;56.61;98680.05;104792;1271;62785;-26
2022/05/27 06:06:19;;;;;;;2.80;1.50;;;;;;;17.36;55.58;98683.48;104786;1271;61968;-25
2022/05/27 06:08:46;;;;;;;2.60;1.40;;;;;;;17.46;56.05;98677.73;104912;1271;75544;-24
2022/05/27 06:11:14;;;;;;;8.80;2.00;;;;;;;17.49;56.00;98672.86;104880;1271;75376;-24
2022/05/27 06:13:41;;;;;;;4.90;1.60;;;;;;;17.49;55.80;98671.29;104951;1271;74393;-25
2022/05/27 06:16:09;;;;;;;2.50;1.80;;;;;;;17.66;56.15;98675.79;104799;1271;62788;-24
2022/05/27 06:18:37;;;;;;;2.60;1.40;;;;;;;17.70;54.86;98668.99;104957;1271;61794;-25
2022/05/27 06:21:04;;;;;;;4.10;1.50;;;;;;;17.75;55.19;98666.32;104960;1271;76655;-24
2022/05/27 06:23:32;;;;;;;6.10;1.70;;;;;;;17.81;55.14;98657.40;104806;1271;76024;-24
2022/05/27 06:26:08;;;;;;;5.20;1.80;;;;;;;17.88;55.26;98658.16;105051;1271;75440;-24
2022/05/27 06:34:24;;;;;;;3.20;1.50;;;;;;;17.93;54.29;98654.56;104821;1271;75351;-25
2022/05/27 06:37:07;;;;;;;6.10;1.60;;;;;;;17.95;54.19;98653.02;104815;1271;76995;-25
2022/05/27 06:39:35;;;;;;;5.00;1.40;;;;;;;18.00;54.32;98654.24;104642;1271;75315;-25
2022/05/27 06:42:04;;;;;;;3.20;1.50;;;;;;;17.96;53.78;98651.58;104650;1271;62249;-25
2022/05/27 06:44:54;;;;;;;3.50;1.50;;;;;;;18.02;55.22;98653.50;104781;1271;62864;-24
2022/05/27 06:47:22;;;;;;;4.10;1.40;;;;;;;18.20;54.74;98652.39;104932;1271;74349;-24
2022/05/27 06:49:49;;;;;;;7.00;1.80;;;;;;;18.26;54.40;98654.69;105065;1271;77594;-24
2022/05/27 06:52:16;;;;;;;2.80;1.40;;;;;;;18.20;53.79;98650.33;104811;1271;75457;-25
2022/05/27 06:54:44;;;;;;;6.80;1.90;;;;;;;18.40;53.85;98646.33;104846;1271;63075;-25
2022/05/27 06:57:12;;;;;;;3.80;1.60;;;;;;;18.46;52.80;98644.17;104793;1271;62424;-24
2022/05/27 06:59:39;;;;;;;3.70;1.80;;;;;;;18.36;53.79;98645.07;104747;1271;74862;-24
2022/05/27 07:02:07;;;;;;;3.60;1.50;;;;;;;18.40;54.41;98645.52;104876;1271;75872;-24
2022/05/27 07:04:35;;;;;;;3.80;1.60;;;;;;;18.48;54.38;98641.92;104745;1271;74361;-24
2022/05/27 07:07:06;;;;;;;5.50;1.30;;;;;;;18.49;52.32;98634.88;104714;1271;62216;-24
2022/05/27 07:09:35;;;;;;;2.60;1.20;;;;;;;18.22;50.05;98627.15;104636;1271;62061;-24
2022/05/27 07:12:06;;;;;;;3.00;1.50;;;;;;;18.28;51.27;98625.31;104883;1271;77402;-24
2022/05/27 07:14:33;;;;;;;3.00;1.30;;;;;;;18.62;52.04;98629.28;104623;1272;76060;-25
2022/05/27 07:17:01;;;;;;;4.20;1.30;;;;;;;18.80;50.20;98623.04;104871;1271;74565;-24
2022/05/27 07:19:40;;;;;;;5.70;1.30;;;;;;;18.76;50.21;98621.75;104755;1271;61814;-24
2022/05/27 07:22:08;;;;;;;3.90;1.30;;;;;;;19.03;50.24;98623.50;104650;1271;61938;-24
2022/05/27 07:24:36;;;;;;;4.30;1.60;;;;;;;19.24;50.23;98620.91;104742;1271;75528;-24
2022/05/27 07:27:04;;;;;;;2.10;1.50;;;;;;;19.38;50.26;98617.73;104987;1271;76874;-24
2022/05/27 07:29:31;;;;;;;3.30;1.50;;;;;;;19.48;49.01;98615.58;104810;1271;74760;-24
2022/05/27 07:31:58;;;;;;;4.00;1.40;;;;;;;19.50;48.74;98612.72;105099;1271;61969;-25
2022/05/27 07:34:26;;;;;;;1.20;1.10;;;;;;;19.57;47.99;98608.90;105107;1271;61744;-24
2022/05/27 07:36:54;;;;;;;2.20;1.20;;;;;;;19.61;48.12;98615.54;105154;1271;76559;-24
2022/05/27 07:39:21;;;;;;;1.30;1.20;;;;;;;19.64;47.46;98603.98;105139;1271;75183;-24
2022/05/27 07:41:48;;;;;;;5.60;1.50;;;;;;;19.50;47.92;98605.81;105072;1271;75406;-24
2022/05/27 07:44:16;;;;;;;4.80;1.30;;;;;;;19.73;47.10;98608.98;105085;1271;61387;-25
2022/05/27 07:46:43;;;;;;;3.20;1.60;;;;;;;19.84;47.13;98602.99;104936;1271;61178;-24
2022/05/27 07:49:11;;;;;;;3.60;1.70;;;;;;;19.73;46.77;98607.38;105127;1271;76605;-24
2022/05/27 07:51:59;;;;;;;4.20;1.50;;;;;;;19.90;47.80;98612.46;105031;1271;77450;-24
2022/05/27 07:54:26;;;;;;;4.30;1.80;;;;;;;20.21;46.30;98601.16;105162;1271;74372;-24
2022/05/27 07:56:53;;;;;;;3.20;1.70;;;;;;;20.18;45.95;98601.15;105069;1271;61979;-24
2022/05/27 07:59:20;;;;;;;4.90;1.70;;;;;;;19.86;45.97;98599.80;105009;1271;61688;-24
2022/05/27 08:01:49;;;;;;;3.10;1.10;;;;;;;19.79;46.38;98590.81;105086;1271;75691;-24
2022/05/27 08:04:16;;;;;;;1.80;1.20;;;;;;;20.03;46.06;98585.45;105130;1271;75691;-24
2022/05/27 08:06:43;;;;;;;2.20;1.50;;;;;;;20.25;44.89;98587.22;105127;1271;75543;-24
2022/05/27 08:09:13;;;;;;;4.10;1.30;;;;;;;20.24;46.07;98582.63;105109;1271;62758;-25
2022/05/27 08:11:40;;;;;;;4.40;1.40;;;;;;;20.54;45.65;98588.63;104840;1271;63066;-24
2022/05/27 08:14:09;;;;;;;4.50;1.80;;;;;;;20.75;44.99;98585.36;105100;1271;76486;-24
2022/05/27 08:16:37;;;;;;;5.70;1.70;;;;;;;20.75;44.84;98583.81;105134;1271;75905;-24
2022/05/27 08:19:05;;;;;;;2.40;1.50;;;;;;;20.89;45.23;98585.42;104778;1271;74125;-25
2022/05/27 08:21:36;;;;;;;1.70;1.30;;;;;;;21.03;44.37;98581.09;105126;1271;63317;-24
2022/05/27 08:24:07;;;;;;;1.60;1.30;;;;;;;20.90;43.06;98577.92;105142;1271;62143;-25
2022/05/27 08:26:37;;;;;;;2.20;1.40;;;;;;;20.82;43.50;98567.75;104894;1271;76720;-24
2022/05/27 08:29:06;;;;;;;6.70;1.80;;;;;;;21.02;42.80;98573.40;105069;1271;75410;-24
2022/05/27 08:31:34;;;;;;;4.80;1.40;;;;;;;21.45;42.69;98568.61;104871;1271;331631;-24
2022/05/27 08:39:36;;;;;;;4.60;1.20;;;;;;;20.96;42.11;98568.31;105030;1271;76249;-24
2022/05/27 08:42:41;;;;;;;1.60;1.40;;;;;;;21.34;41.97;98561.52;104856;1271;76965;-25
2022/05/27 08:45:28;;;;;;;3.40;1.40;;;;;;;21.64;40.93;98555.58;104429;1280;74436;-25
2022/05/27 08:48:01;;;;;;;3.00;1.20;;;;;;;21.74;41.39;98560.77;104547;1277;62987;-24
2022/05/27 08:50:35;;;;;;;2.10;0.90;;;;;;;21.80;40.87;98550.15;104513;1277;61153;-24
2022/05/27 08:53:15;;;;;;;3.20;1.20;;;;;;;22.13;40.32;98547.98;104402;1277;76641;-25
2022/05/27 08:59:41;;;;;;;4.90;0.90;;;;;;;22.11;38.91;98541.14;104416;1277;74372;-24
2022/05/27 09:01:42;;;;;;;2.30;0.80;;;;;;;21.94;38.39;98537.93;104314;1277;61850;-25
2022/05/27 09:04:25;;;;;;;3.60;1.00;;;;;;;21.80;38.94;98532.94;104642;1277;61828;-24
2022/05/27 09:07:04;;;;;;;3.20;1.00;;;;;;;21.72;38.96;98532.60;104465;1277;76914;-24
2022/05/27 09:09:32;;;;;;;3.00;1.10;;;;;;;21.60;38.67;98535.41;104414;1277;76955;-25
2022/05/27 09:12:05;;;;;;;2.80;1.10;;;;;;;21.43;39.60;98521.48;104565;1277;76459;-24
2022/05/27 09:14:33;;;;;;;2.10;1.10;;;;;;;21.09;39.63;98528.01;104621;1277;61309;-24
2022/05/27 09:17:05;;;;;;;3.00;0.80;;;;;;;20.94;38.58;98520.73;104483;1277;61803;-24
2022/05/27 09:20:02;;;;;;;2.80;1.00;;;;;;;20.68;38.62;98520.36;104578;1271;76948;-24
2022/05/27 09:23:06;;;;;;;3.90;1.00;;;;;;;20.93;39.32;98529.45;104674;1274;76775;-25
2022/05/27 09:25:52;;;;;;;1.10;0.80;;;;;;;20.92;39.23;98529.13;104748;1274;75330;-25
2022/05/27 09:28:41;;;;;;;2.70;1.00;;;;;;;21.34;38.69;98513.92;104882;1273;63379;-25
2022/05/27 09:31:09;;;;;;;3.70;1.10;;;;;;;21.78;38.23;98522.44;105022;1274;62740;-24
2022/05/27 09:33:37;;;;;;;4.20;1.20;;;;;;;22.00;38.55;98523.02;104666;1275;74826;-24
2022/05/27 09:36:25;;;;;;;3.30;1.40;;;;;;;22.35;38.01;98517.34;104584;1271;75698;-24
2022/05/27 09:38:55;;;;;;;4.00;1.20;;;;;;;22.34;38.60;98510.94;104681;1271;74551;-25
2022/05/27 09:41:37;;;;;;;2.80;1.20;;;;;;;22.12;38.34;98515.16;104695;1274;61690;-24
2022/05/27 09:44:23;;;;;;;2.40;1.20;;;;;;;22.48;39.61;98519.80;104775;1271;61954;-25
2022/05/27 09:46:50;;;;;;;5.90;1.20;;;;;;;22.25;38.30;98512.56;105070;1274;77002;-24
2022/05/27 09:49:18;;;;;;;2.30;1.20;;;;;;;21.89;39.28;98509.77;105112;1274;77057;-25
2022/05/27 09:51:45;;;;;;;4.50;1.00;;;;;;;21.69;39.72;98516.32;105126;1273;74513;-24
2022/05/27 09:54:18;;;;;;;3.00;1.20;;;;;;;21.35;40.62;98510.42;105035;1274;62841;-24
2022/05/27 09:57:02;;;;;;;4.90;1.20;;;;;;;21.00;40.80;98506.42;105130;1274;62722;-25
2022/05/27 09:59:35;;;;;;;1.60;1.00;;;;;;;20.60;41.61;98506.20;104875;1274;76723;-25
2022/05/27 10:02:15;;;;;;;6.30;1.20;;;;;;;20.21;41.31;98497.33;104788;1274;76713;-24
2022/05/27 10:05:07;;;;;;;3.20;1.20;;;;;;;19.96;41.85;98502.17;104837;1274;75704;-25
2022/05/27 10:07:49;;;;;;;3.40;1.20;;;;;;;19.84;42.68;98507.20;104900;1274;61785;-25
2022/05/27 10:10:19;;;;;;;2.00;1.30;;;;;;;19.69;43.28;98502.75;104691;1275;61964;-25
2022/05/27 10:12:47;;;;;;;2.20;1.10;;;;;;;19.56;43.54;98501.08;104707;1274;75552;-25
2022/05/27 10:15:35;;;;;;;2.00;1.00;;;;;;;19.46;44.35;98504.77;104997;1274;76828;-25
2022/05/27 10:18:20;;;;;;;2.70;1.10;;;;;;;19.38;44.88;98499.30;105042;1274;75662;-25
2022/05/27 10:21:02;;;;;;;2.60;0.90;;;;;;;19.20;45.01;98498.11;105101;1271;63223;-25
2022/05/27 10:23:36;;;;;;;6.30;1.20;;;;;;;19.13;45.35;98501.16;105051;1271;62772;-25
2022/05/27 10:26:24;;;;;;;3.20;1.40;;;;;;;19.01;46.16;98495.48;104746;1274;76498;-25
2022/05/27 10:29:08;;;;;;;5.40;1.60;;;;;;;18.92;46.55;98491.90;105088;1271;75845;-25
2022/05/27 10:31:35;;;;;;;;;;;;;;;18.89;46.71;98481.89;104828;1271;74727;-23
2022/05/27 10:34:03;;;;;;;3.30;1.00;;;;;;;18.85;46.77;98480.58;104985;1271;62188;-23
2022/05/27 10:36:53;;;;;;;2.10;1.30;;;;;;;18.85;47.03;98474.20;104939;1272;61936;-24
2022/05/27 10:39:28;;;;;;;4.30;1.60;;;;;;;18.89;47.08;98477.59;105029;1271;76543;-24
2022/05/27 10:41:58;;;;;;;7.00;1.40;;;;;;;19.00;47.26;98464.70;105145;1271;76957;-24
2022/05/27 10:44:55;;;;;;;3.50;1.50;;;;;;;19.14;47.49;98462.14;104981;1271;74531;-23
2022/05/27 10:47:28;;;;;;;1.60;1.20;;;;;;;19.43;46.68;98463.87;104967;1271;63010;-23
2022/05/27 10:50:17;;;;;;;6.00;1.30;;;;;;;19.62;46.94;98459.66;105033;1271;61829;-25
2022/05/27 10:53:08;;;;;;;3.40;1.20;;;;;;;19.81;46.34;98451.91;105119;1271;76878;-24
2022/05/27 10:56:13;;;;;;;3.30;1.40;;;;;;;20.01;47.69;98448.52;105095;1272;76256;-24
2022/05/27 11:02:12;;;;;;;5.20;1.70;;;;;;;20.10;45.51;98430.73;105081;1271;63276;-25
2022/05/27 11:05:05;;;;;;;2.80;1.30;;;;;;;20.26;44.96;98417.65;105131;1271;62052;-24
2022/05/27 11:08:00;;;;;;;3.20;1.40;;;;;;;20.26;44.72;98417.41;105094;1271;74265;-24
2022/05/27 11:10:49;;;;;;;1.60;1.30;;;;;;;20.25;45.13;98421.92;105114;1271;75950;-25
2022/05/27 11:16:49;;;;;;;2.40;1.40;;;;;;;20.15;45.78;98418.62;105086;1271;62196;-24
2022/05/27 11:19:22;;;;;;;3.70;1.70;;;;;;;20.12;45.24;98414.19;105059;1271;61663;-24
2022/05/27 11:21:59;;;;;;;2.10;1.20;;;;;;;20.04;45.79;98411.66;104952;1271;75622;-24
2022/05/27 11:24:55;;;;;;;4.30;1.40;;;;;;;19.87;45.66;98393.79;104930;1271;76039;-24
2022/05/27 11:27:41;;;;;;;2.30;1.20;;;;;;;19.78;46.78;98397.10;104803;1271;75470;-24
2022/05/27 11:30:34;;;;;;;4.80;1.20;;;;;;;19.66;46.56;98393.24;104977;1271;62008;-24
2022/05/27 11:33:24;;;;;;;3.70;1.10;;;;;;;19.58;47.06;98385.68;104963;1271;61804;-24
2022/05/27 11:36:27;;;;;;;3.20;1.40;;;;;;;19.52;47.52;98383.55;105145;1271;76429;-24
2022/05/27 11:39:05;;;;;;;4.80;1.30;;;;;;;19.46;48.25;98382.08;105127;1271;75928;-24
2022/05/27 11:41:44;;;;;;;3.10;1.20;;;;;;;19.50;46.97;98371.10;104739;1272;73665;-25
2022/05/27 11:44:48;;;;;;;2.20;1.20;;;;;;;19.55;47.51;98374.33;104684;1271;61813;-24
2022/05/27 11:47:18;;;;;;;3.30;1.60;;;;;;;19.75;48.17;98375.19;104624;1277;63155;-25
2022/05/27 11:50:04;;;;;;;2.30;1.20;;;;;;;19.92;47.35;98371.60;104556;1277;76584;-25
2022/05/27 11:52:53;;;;;;;2.00;1.30;;;;;;;19.97;45.92;98360.55;104652;1278;76874;-25
2022/05/27 11:55:41;;;;;;;4.40;1.00;;;;;;;19.99;46.40;98358.04;104667;1277;73742;-26
2022/05/27 11:58:20;;;;;;;1.20;1.10;;;;;;;20.13;46.46;98353.48;104608;1277;62018;-25
2022/05/27 12:00:59;;;;;;;3.60;1.20;;;;;;;20.24;46.94;98347.95;104661;1277;62080;-25
2022/05/27 12:03:34;;;;;;;1.80;1.10;;;;;;;20.38;46.31;98336.85;104463;1278;75193;-26
2022/05/27 12:06:04;;;;;;;3.10;1.20;;;;;;;20.34;45.91;98333.52;104482;1278;76979;-26
2022/05/27 12:08:39;;;;;;;1.10;1.00;;;;;;;20.18;45.50;98321.31;104539;1278;74306;-25
2022/05/27 12:11:34;;;;;;;5.80;1.20;;;;;;;20.15;45.04;98323.36;104417;1277;63013;-26
2022/05/27 12:14:13;;;;;;;4.10;1.00;;;;;;;20.17;45.64;98331.56;104662;1277;62069;-25
2022/05/27 12:16:43;;;;;;;1.50;0.90;;;;;;;20.18;45.79;98319.94;104610;1280;76798;-25
2022/05/27 12:19:24;;;;;;;5.10;2.30;;;;;;;20.11;46.38;98322.55;104414;1280;76787;-25
2022/05/27 12:21:58;;;;;;;4.00;1.20;;;;;;;20.02;46.52;98323.77;104650;1274;75412;-25
2022/05/27 12:24:33;;;;;;;4.30;1.00;;;;;;;19.95;46.78;98327.75;104607;1274;61055;-25